Time;durP1;ratioP1;P1;durP2;ratioP2;P2;SDS_P1;SDS_P2;PMS_P1;PMS_P2;Temp;Humidity;BMP_temperature;BMP_pressure;BME280_temperature;BME280_humidity;BME280_pressure;Samples;Min_cycle;Max_cycle;Signal;HPM_P1;HPM_P2
2022/05/16 00:00:07;;;;;;;14.63;8.55;;;13.40;99.90;;;;;;5032854;28;20061;-85
2022/05/16 00:02:32;;;;;;;16.23;9.27;;;12.20;99.90;;;;;;5032086;28;20049;-84
2022/05/16 00:04:58;;;;;;;13.07;8.48;;;12.10;99.90;;;;;;5033169;28;20065;-83
2022/05/16 00:07:24;;;;;;;15.93;8.70;;;12.10;99.90;;;;;;5033549;28;20099;-83
2022/05/16 00:09:50;;;;;;;13.02;8.25;;;12.10;99.90;;;;;;5053021;28;20476;-82
2022/05/16 00:12:16;;;;;;;10.88;7.53;;;12.10;99.90;;;;;;5052128;28;20068;-83
2022/05/16 00:14:42;;;;;;;16.50;8.52;;;12.10;99.90;;;;;;5031885;28;20559;-83
2022/05/16 00:17:08;;;;;;;15.25;8.13;;;12.10;99.90;;;;;;5015695;28;20054;-83
2022/05/16 00:19:33;;;;;;;12.20;8.35;;;12.00;99.90;;;;;;5031753;28;20056;-83
2022/05/16 00:21:59;;;;;;;14.30;8.20;;;12.00;99.90;;;;;;5006468;28;20084;-82
2022/05/16 00:24:26;;;;;;;16.35;8.68;;;12.00;99.90;;;;;;5010330;28;20057;-82
2022/05/16 00:26:55;;;;;;;14.30;8.73;;;12.10;99.90;;;;;;4996069;28;20401;-83
2022/05/16 00:29:21;;;;;;;13.30;8.13;;;12.00;99.90;;;;;;4995504;28;20046;-82
2022/05/16 00:31:47;;;;;;;12.35;8.25;;;12.00;99.90;;;;;;4996049;28;20084;-83
2022/05/16 00:34:13;;;;;;;14.05;7.68;;;12.00;99.90;;;;;;4980084;28;20057;-83
2022/05/16 00:36:39;;;;;;;14.13;8.05;;;12.00;99.90;;;;;;4979511;28;20374;-82
2022/05/16 00:39:04;;;;;;;13.82;7.68;;;12.00;99.90;;;;;;5012214;28;20103;-83
2022/05/16 00:41:30;;;;;;;17.65;8.45;;;12.00;99.90;;;;;;5011761;28;20132;-83
2022/05/16 00:43:58;;;;;;;13.50;7.75;;;11.90;99.90;;;;;;4996028;28;20046;-83
2022/05/16 00:46:25;;;;;;;15.35;9.30;;;11.80;99.90;;;;;;4995454;28;20053;-82
2022/05/16 00:48:51;;;;;;;14.07;7.47;;;11.80;99.90;;;;;;4995928;28;20108;-83
2022/05/16 00:51:32;;;;;;;10.55;7.07;;;11.80;99.90;;;;;;4995654;28;20050;-83
2022/05/16 00:54:03;;;;;;;13.20;7.63;;;11.80;99.90;;;;;;4980963;28;20512;-83
2022/05/16 00:56:29;;;;;;;13.57;7.35;;;11.70;99.90;;;;;;4979371;28;20518;-83
2022/05/16 00:58:55;;;;;;;11.82;7.28;;;12.60;99.90;;;;;;5011461;28;20049;-83
2022/05/16 01:06:54;;;;;;;9.95;7.15;;;11.60;99.90;;;;;;4998009;28;20049;-83
2022/05/16 01:09:20;;;;;;;13.50;7.18;;;11.60;99.90;;;;;;4995610;28;20556;-83
2022/05/16 01:11:46;;;;;;;12.18;7.10;;;11.60;99.90;;;;;;4994925;28;20046;-83
2022/05/16 01:14:11;;;;;;;17.92;8.15;;;11.70;99.90;;;;;;4994211;28;20049;-83
2022/05/16 01:16:37;;;;;;;13.57;6.32;;;11.80;99.90;;;;;;5030161;28;20057;-82
2022/05/16 01:19:03;;;;;;;12.02;5.95;;;11.70;99.90;;;;;;5031310;28;20129;-82
2022/05/16 01:21:35;;;;;;;10.43;6.28;;;11.80;99.90;;;;;;5030259;28;20056;-82
2022/05/16 01:24:09;;;;;;;13.60;6.10;;;11.90;99.90;;;;;;5015164;28;20390;-82
2022/05/16 01:26:35;;;;;;;8.90;5.63;;;11.90;99.90;;;;;;4999060;28;20057;-81
2022/05/16 01:29:00;;;;;;;10.15;5.65;;;12.00;99.90;;;;;;5030741;28;20107;-82
2022/05/16 01:31:26;;;;;;;9.65;5.20;;;12.00;99.90;;;;;;5014111;28;20440;-82
2022/05/16 01:33:52;;;;;;;7.70;5.45;;;12.10;99.90;;;;;;5030938;28;20064;-81
2022/05/16 01:36:18;;;;;;;10.50;4.65;;;12.10;99.90;;;;;;5030209;28;20056;-82
2022/05/16 01:38:43;;;;;;;8.38;4.90;;;12.20;99.90;;;;;;5030243;28;20041;-82
2022/05/16 01:41:11;;;;;;;11.68;5.30;;;12.20;99.90;;;;;;5030506;28;20048;-82
2022/05/16 01:43:42;;;;;;;10.80;4.90;;;12.10;99.90;;;;;;4997394;28;20124;-81
2022/05/16 01:46:08;;;;;;;8.20;4.97;;;12.10;99.90;;;;;;5014367;28;20053;-82
2022/05/16 01:48:34;;;;;;;7.63;4.45;;;12.20;99.90;;;;;;5013566;28;20068;-82
2022/05/16 01:51:05;;;;;;;8.43;4.88;;;12.10;99.90;;;;;;4997933;28;20053;-81
2022/05/16 01:53:31;;;;;;;9.98;4.45;;;12.00;99.90;;;;;;5013701;28;20065;-81
2022/05/16 01:55:56;;;;;;;9.48;4.72;;;12.00;99.90;;;;;;4997770;28;20045;-81
2022/05/16 01:58:22;;;;;;;9.30;4.38;;;11.90;99.90;;;;;;5030387;28;20064;-81
2022/05/16 02:00:48;;;;;;;8.65;4.82;;;12.00;99.90;;;;;;5029521;28;20092;-81
2022/05/16 02:03:13;;;;;;;7.60;4.10;;;12.00;99.90;;;;;;4997458;28;20389;-82
2022/05/16 02:05:41;;;;;;;6.85;4.38;;;12.00;99.90;;;;;;5030983;28;20042;-81
2022/05/16 02:08:07;;;;;;;7.13;4.15;;;11.90;99.90;;;;;;5013825;28;20092;-82
2022/05/16 02:10:33;;;;;;;9.32;4.95;;;11.90;99.90;;;;;;5030809;28;20055;-81
2022/05/16 02:12:59;;;;;;;7.68;4.72;;;11.90;99.90;;;;;;5013269;28;20061;-81
2022/05/16 02:15:27;;;;;;;7.47;4.18;;;11.90;99.90;;;;;;5013761;28;20411;-82
2022/05/16 02:17:54;;;;;;;7.25;3.90;;;12.00;99.90;;;;;;5029591;28;20409;-82
2022/05/16 02:20:19;;;;;;;7.40;3.70;;;12.00;99.90;;;;;;5031128;28;20049;-82
2022/05/16 02:25:32;;;;;;;6.45;4.15;;;11.80;99.90;;;;;;5030030;28;20060;-82
2022/05/16 02:27:58;;;;;;;7.95;4.57;;;11.80;99.90;;;;;;5031564;28;20053;-82
2022/05/16 02:30:23;;;;;;;8.23;4.00;;;11.70;99.90;;;;;;5030482;28;20045;-82
2022/05/16 02:32:49;;;;;;;4.63;3.47;;;11.60;99.90;;;;;;5031108;28;20052;-82
2022/05/16 02:35:15;;;;;;;4.70;3.47;;;11.60;99.90;;;;;;5014395;28;20137;-82
2022/05/16 02:37:41;;;;;;;8.18;4.20;;;11.60;99.90;;;;;;5031422;28;20049;-82
2022/05/16 02:40:07;;;;;;;6.53;3.70;;;11.50;99.90;;;;;;5002410;28;20095;-82
2022/05/16 02:42:33;;;;;;;4.57;3.22;;;11.50;99.90;;;;;;5013433;28;20339;-81
2022/05/16 02:44:58;;;;;;;6.93;3.80;;;11.30;99.90;;;;;;5029910;28;20084;-82
2022/05/16 02:47:24;;;;;;;6.88;3.50;;;11.30;99.90;;;;;;5012641;28;20129;-82
2022/05/16 02:49:51;;;;;;;6.57;3.65;;;11.30;99.90;;;;;;5029761;28;20468;-82
2022/05/16 02:52:17;;;;;;;5.15;3.75;;;11.20;99.90;;;;;;5031542;28;20052;-82
2022/05/16 02:54:43;;;;;;;8.07;4.35;;;11.20;99.90;;;;;;5030687;28;20440;-82
2022/05/16 02:57:08;;;;;;;6.35;3.70;;;11.30;99.90;;;;;;5046429;28;20114;-82
2022/05/16 02:59:35;;;;;;;6.60;3.70;;;11.20;99.90;;;;;;5012862;28;20148;-82
2022/05/16 03:02:04;;;;;;;5.25;3.40;;;11.20;99.90;;;;;;5046192;28;20405;-82
2022/05/16 03:04:30;;;;;;;5.43;3.40;;;11.30;99.90;;;;;;5013493;28;20128;-82
2022/05/16 03:06:56;;;;;;;6.70;3.25;;;11.30;99.90;;;;;;5012654;28;20085;-81
2022/05/16 03:09:22;;;;;;;4.80;3.63;;;11.30;99.90;;;;;;5030631;28;20468;-82
2022/05/16 03:11:48;;;;;;;6.47;3.50;;;11.30;99.90;;;;;;5028697;28;20045;-82
2022/05/16 03:14:14;;;;;;;8.70;3.25;;;11.30;99.90;;;;;;4980365;28;20144;-82
2022/05/16 03:16:39;;;;;;;6.00;3.20;;;11.80;99.90;;;;;;5045688;28;20136;-82
2022/05/16 03:19:05;;;;;;;6.75;3.25;;;11.20;99.90;;;;;;5028971;28;20042;-82
2022/05/16 03:21:31;;;;;;;5.47;3.20;;;11.20;99.90;;;;;;5012788;28;20049;-83
2022/05/16 03:23:57;;;;;;;7.47;3.47;;;11.20;99.90;;;;;;4995915;28;20037;-83
2022/05/16 03:26:23;;;;;;;5.32;3.40;;;11.20;99.90;;;;;;4996707;28;20054;-82
2022/05/16 03:28:49;;;;;;;6.22;3.20;;;11.20;99.90;;;;;;5028700;28;20061;-82
2022/05/16 03:31:15;;;;;;;6.65;3.20;;;11.10;99.90;;;;;;5029184;28;20053;-83
2022/05/16 03:33:40;;;;;;;7.40;3.20;;;11.10;99.90;;;;;;5045416;28;20049;-82
2022/05/16 03:36:06;;;;;;;7.47;3.80;;;11.00;99.90;;;;;;5046262;28;20057;-82
2022/05/16 03:41:16;;;;;;;6.68;3.42;;;11.10;99.90;;;;;;5047158;28;20508;-82
2022/05/16 03:43:42;;;;;;;7.00;3.47;;;11.00;99.90;;;;;;5030149;28;20077;-82
2022/05/16 03:46:08;;;;;;;6.35;3.50;;;11.00;99.90;;;;;;5016353;28;20049;-82
2022/05/16 03:48:33;;;;;;;4.95;3.42;;;11.00;99.90;;;;;;5040893;28;20049;-82
2022/05/16 03:50:59;;;;;;;6.25;3.50;;;11.00;99.90;;;;;;5029379;28;20045;-82
2022/05/16 03:53:25;;;;;;;6.95;2.97;;;11.10;99.90;;;;;;5029289;28;20107;-82
2022/05/16 03:55:51;;;;;;;7.97;3.58;;;11.20;99.90;;;;;;5029294;28;20041;-82
2022/05/16 03:58:16;;;;;;;6.43;3.50;;;11.40;99.90;;;;;;5029113;28;20053;-82
2022/05/16 04:00:42;;;;;;;5.00;3.13;;;11.40;99.90;;;;;;5032222;28;20202;-81
2022/05/16 04:03:08;;;;;;;4.50;2.97;;;11.50;99.90;;;;;;5016165;28;20052;-82
2022/05/16 04:05:34;;;;;;;6.43;3.10;;;11.50;99.90;;;;;;5033380;28;20394;-82
2022/05/16 04:08:00;;;;;;;5.10;3.20;;;11.50;99.90;;;;;;5015544;28;20045;-82
2022/05/16 04:10:25;;;;;;;3.75;2.97;;;11.50;99.90;;;;;;5034129;28;20048;-82
2022/05/16 04:12:51;;;;;;;5.25;3.10;;;11.50;99.90;;;;;;5032285;28;20041;-82
2022/05/16 04:15:21;;;;;;;3.33;2.83;;;11.50;99.90;;;;;;5032808;28;20057;-82
2022/05/16 04:17:46;;;;;;;4.75;3.15;;;11.70;99.90;;;;;;5016388;28;20060;-82
2022/05/16 04:20:13;;;;;;;6.65;3.42;;;11.60;99.90;;;;;;5016436;28;20045;-83
2022/05/16 04:22:38;;;;;;;9.35;3.38;;;11.70;99.90;;;;;;5032433;28;20096;-82
2022/05/16 04:25:05;;;;;;;4.18;3.33;;;11.90;99.90;;;;;;5015875;28;21054;-82
2022/05/16 04:27:30;;;;;;;6.32;3.20;;;11.90;99.90;;;;;;5032751;28;20055;-83
2022/05/16 04:29:56;;;;;;;8.05;3.35;;;12.00;99.90;;;;;;5032343;28;20054;-82
2022/05/16 04:32:22;;;;;;;6.35;3.15;;;12.10;99.90;;;;;;5033973;28;20457;-82
2022/05/16 04:34:47;;;;;;;7.72;3.30;;;12.20;99.90;;;;;;5033134;28;20128;-82
2022/05/16 04:37:13;;;;;;;5.20;3.35;;;12.40;99.90;;;;;;5015772;28;20045;-82
2022/05/16 04:39:39;;;;;;;7.30;3.30;;;12.70;99.90;;;;;;5031904;28;20057;-82
2022/05/16 04:44:49;;;;;;;4.85;2.85;;;13.70;99.90;;;;;;5031285;28;20501;-81
2022/05/16 04:47:15;;;;;;;5.20;3.10;;;13.70;99.90;;;;;;5020979;28;20076;-82
2022/05/16 04:49:41;;;;;;;4.30;2.92;;;13.60;99.90;;;;;;5036346;28;20477;-82
2022/05/16 04:52:06;;;;;;;5.50;3.00;;;13.50;99.90;;;;;;5032369;28;20100;-83
2022/05/16 04:54:32;;;;;;;4.75;2.75;;;13.20;99.90;;;;;;5032762;28;20077;-82
2022/05/16 04:56:58;;;;;;;8.15;3.35;;;13.20;99.90;;;;;;5030850;28;20126;-82
2022/05/16 04:59:24;;;;;;;5.72;3.42;;;13.30;99.90;;;;;;5031306;28;20041;-83
2022/05/16 05:01:49;;;;;;;7.10;3.33;;;13.40;99.90;;;;;;5014942;28;20087;-82
2022/05/16 05:04:15;;;;;;;6.50;3.33;;;13.40;99.90;;;;;;5031132;28;20080;-83
2022/05/16 05:06:41;;;;;;;5.00;3.08;;;13.40;99.90;;;;;;5014393;28;20050;-83
2022/05/16 05:09:07;;;;;;;6.25;3.50;;;13.20;99.90;;;;;;5030988;28;20049;-82
2022/05/16 05:14:32;;;;;;;4.70;3.53;;;13.00;99.90;;;;;;5016789;28;20064;-82
2022/05/16 05:17:09;;;;;;;6.93;3.40;;;13.00;99.90;;;;;;5016518;28;20096;-84
2022/05/16 05:19:35;;;;;;;6.60;3.38;;;13.00;99.90;;;;;;4998346;28;20049;-82
2022/05/16 05:22:01;;;;;;;6.10;3.60;;;13.20;99.90;;;;;;5014072;28;20401;-83
2022/05/16 05:24:26;;;;;;;5.63;3.88;;;13.60;99.90;;;;;;5014520;28;20045;-83
2022/05/16 05:26:52;;;;;;;5.28;3.47;;;14.40;99.90;;;;;;5030797;28;20053;-83
2022/05/16 05:29:19;;;;;;;6.38;3.22;;;15.20;99.90;;;;;;5030922;28;20045;-83
2022/05/16 05:31:45;;;;;;;5.30;3.25;;;15.80;99.90;;;;;;5030968;28;20053;-84
2022/05/16 05:34:11;;;;;;;5.05;3.40;;;16.30;99.90;;;;;;5013891;28;20068;-83
2022/05/16 05:36:38;;;;;;;5.90;3.28;;;16.60;99.90;;;;;;5014302;28;20041;-83
2022/05/16 05:39:04;;;;;;;7.35;3.35;;;16.80;99.90;;;;;;5030214;28;20053;-83
2022/05/16 05:41:30;;;;;;;5.90;3.45;;;17.80;99.90;;;;;;5030732;28;20072;-83
2022/05/16 05:43:56;;;;;;;5.78;3.67;;;18.20;99.90;;;;;;5029892;28;20050;-83
2022/05/16 05:46:21;;;;;;;5.72;3.08;;;18.00;99.90;;;;;;5031485;28;20112;-83
2022/05/16 05:48:47;;;;;;;5.60;3.38;;;17.30;99.90;;;;;;5030691;28;20056;-83
2022/05/16 05:51:13;;;;;;;7.30;3.28;;;16.70;99.90;;;;;;5031690;28;20046;-83
2022/05/16 05:53:41;;;;;;;7.00;3.55;;;16.70;99.90;;;;;;5030405;28;20051;-83
2022/05/16 05:56:07;;;;;;;6.65;3.30;;;17.00;99.90;;;;;;5013983;28;20053;-83
2022/05/16 05:58:33;;;;;;;8.18;3.65;;;17.50;99.90;;;;;;5031520;28;20055;-83
2022/05/16 06:00:59;;;;;;;5.25;2.80;;;17.50;99.90;;;;;;5013651;28;20069;-83
2022/05/16 06:03:25;;;;;;;7.50;3.40;;;17.80;99.90;;;;;;5030136;28;20049;-83
2022/05/16 06:05:51;;;;;;;6.18;3.00;;;18.40;99.90;;;;;;5029949;28;20045;-84
2022/05/16 06:08:16;;;;;;;5.95;3.15;;;18.10;99.90;;;;;;5029756;28;20390;-83
2022/05/16 06:10:42;;;;;;;5.80;3.22;;;18.60;99.90;;;;;;5013916;28;20080;-83
2022/05/16 06:13:08;;;;;;;7.43;3.42;;;18.30;99.90;;;;;;5029620;28;20103;-83
2022/05/16 06:15:33;;;;;;;7.20;3.35;;;18.10;99.90;;;;;;5030242;28;20053;-83
2022/05/16 06:17:59;;;;;;;9.88;3.40;;;17.10;99.90;;;;;;5029393;28;20084;-83
2022/05/16 06:20:25;;;;;;;6.10;3.40;;;16.80;99.90;;;;;;5029834;28;20067;-83
2022/05/16 06:22:50;;;;;;;8.35;3.60;;;16.70;99.90;;;;;;5029620;28;20079;-83
2022/05/16 06:25:33;;;;;;;8.90;3.30;;;16.80;99.90;;;;;;5012879;28;20045;-82
2022/05/16 06:28:00;;;;;;;10.43;3.45;;;16.60;99.90;;;;;;5015374;28;20367;-82
2022/05/16 06:30:26;;;;;;;6.97;3.42;;;16.60;99.90;;;;;;5013160;28;20129;-83
2022/05/16 06:32:51;;;;;;;9.60;3.53;;;16.20;99.90;;;;;;5029866;28;20474;-82
2022/05/16 06:35:17;;;;;;;8.68;3.83;;;16.30;99.90;;;;;;4996918;28;20504;-82
2022/05/16 06:37:43;;;;;;;5.85;3.45;;;16.60;99.90;;;;;;5015863;28;20042;-82
2022/05/16 06:40:09;;;;;;;7.00;3.80;;;16.90;99.90;;;;;;5004054;28;20057;-81
2022/05/16 06:42:35;;;;;;;7.65;3.67;;;17.40;99.90;;;;;;5036622;28;20432;-83
2022/05/16 06:45:00;;;;;;;9.50;3.10;;;18.30;99.90;;;;;;5030836;28;20049;-83
2022/05/16 06:47:34;;;;;;;8.75;3.30;;;18.90;99.90;;;;;;5018466;28;20131;-84
2022/05/16 06:49:59;;;;;;;8.05;3.20;;;20.00;99.90;;;;;;5014838;28;20482;-84
2022/05/16 06:52:25;;;;;;;8.40;3.53;;;20.10;99.90;;;;;;5048886;28;20102;-83
2022/05/16 06:54:51;;;;;;;7.47;3.60;;;21.00;99.90;;;;;;5050422;28;20049;-84
2022/05/16 06:57:17;;;;;;;10.05;3.90;;;21.10;99.90;;;;;;5050926;28;20041;-85
2022/05/16 06:59:43;;;;;;;6.55;3.20;;;21.20;99.90;;;;;;5051574;28;20049;-85
2022/05/16 07:02:09;;;;;;;6.80;3.00;;;21.10;99.90;;;;;;5032791;28;20048;-86
2022/05/16 07:04:36;;;;;;;7.57;3.42;;;21.50;99.90;;;;;;5051342;28;20068;-85
2022/05/16 07:07:04;;;;;;;8.32;2.97;;;21.40;99.90;;;;;;5050734;28;20052;-87
2022/05/16 07:09:30;;;;;;;7.55;3.75;;;21.90;99.90;;;;;;5049842;28;20435;-86
2022/05/16 07:11:56;;;;;;;6.78;3.05;;;21.80;99.90;;;;;;5032203;28;20053;-87
2022/05/16 07:14:22;;;;;;;5.28;3.33;;;21.90;99.90;;;;;;5045093;28;20554;-89
2022/05/16 07:16:47;;;;;;;5.90;3.60;;;22.00;99.90;;;;;;5053840;28;20132;-86
2022/05/16 07:19:13;;;;;;;10.30;3.97;;;21.50;99.90;;;;;;5048185;28;20050;-86
2022/05/16 07:21:39;;;;;;;8.27;3.80;;;21.40;99.90;;;;;;5019193;28;20048;-87
2022/05/16 07:24:05;;;;;;;10.10;3.63;;;21.80;99.90;;;;;;5048536;28;20045;-87
2022/05/16 07:29:15;;;;;;;6.35;3.05;;;23.20;99.90;;;;;;5053663;28;20045;-87
2022/05/16 07:31:41;;;;;;;7.28;3.50;;;23.60;99.50;;;;;;5049585;28;20045;-85
2022/05/16 07:34:07;;;;;;;8.10;3.97;;;23.00;99.60;;;;;;5051592;28;20136;-83
2022/05/16 07:36:32;;;;;;;6.68;3.70;;;23.10;99.80;;;;;;5054349;28;20041;-84
2022/05/16 07:38:58;;;;;;;8.10;3.72;;;23.30;99.90;;;;;;5054965;28;20134;-84
2022/05/16 07:41:24;;;;;;;9.45;3.45;;;23.30;99.50;;;;;;5054698;28;20055;-88
2022/05/16 07:43:49;;;;;;;9.60;4.25;;;23.40;99.70;;;;;;5053714;28;20075;-87
2022/05/16 07:46:15;;;;;;;8.82;3.63;;;23.50;99.80;;;;;;5037318;28;20057;-84
2022/05/16 07:48:42;;;;;;;6.97;3.42;;;23.60;99.30;;;;;;5017124;28;20049;-85
2022/05/16 07:51:08;;;;;;;7.93;3.10;;;23.50;99.80;;;;;;5048724;28;20066;-88
2022/05/16 07:53:34;;;;;;;10.30;3.72;;;23.90;98.90;;;;;;5036174;28;20132;-90
2022/05/16 07:56:00;;;;;;;8.93;4.05;;;24.00;99.20;;;;;;5050244;28;20123;-89
2022/05/16 07:58:25;;;;;;;17.30;3.78;;;24.10;98.70;;;;;;5035423;28;20049;-91
2022/05/16 08:00:52;;;;;;;10.95;3.67;;;24.00;98.50;;;;;;5037647;28;20056;-90
2022/05/16 08:03:20;;;;;;;9.15;3.30;;;23.00;99.30;;;;;;5037087;28;20049;-86
2022/05/16 08:05:45;;;;;;;15.65;4.18;;;23.80;99.20;;;;;;5019788;28;20053;-89
2022/05/16 08:10:56;;;;;;;6.78;3.17;;;24.20;98.70;;;;;;5039469;28;20391;-86
2022/05/16 08:13:23;;;;;;;8.23;3.78;;;24.00;98.50;;;;;;5050253;28;20076;-88
2022/05/16 08:15:48;;;;;;;7.82;3.70;;;24.20;99.10;;;;;;5028814;28;20108;-86
2022/05/16 08:18:14;;;;;;;8.27;3.30;;;24.40;98.90;;;;;;5046241;28;20087;-88
2022/05/16 08:20:43;;;;;;;8.32;3.33;;;25.50;98.00;;;;;;5034585;28;20079;-86
2022/05/16 08:23:12;;;;;;;8.88;3.50;;;25.20;97.80;;;;;;5021942;28;20657;-86
2022/05/16 08:25:38;;;;;;;10.15;3.25;;;25.50;98.00;;;;;;5035026;28;20056;-87
2022/05/16 08:28:04;;;;;;;10.02;3.28;;;25.50;97.50;;;;;;5052830;28;20056;-90
2022/05/16 08:30:30;;;;;;;8.40;3.03;;;26.10;97.50;;;;;;5049626;28;20041;-87
2022/05/16 08:32:56;;;;;;;11.57;3.25;;;26.10;97.70;;;;;;5017674;28;20057;-86
2022/05/16 08:35:23;;;;;;;8.48;3.25;;;26.40;97.10;;;;;;5016817;28;20433;-86
2022/05/16 08:41:02;;;;;;;8.25;3.40;;;26.20;97.00;;;;;;5019381;28;20153;-87
2022/05/16 08:44:11;;;;;;;6.50;3.00;;;25.70;95.90;;;;;;5017928;28;20045;-88
2022/05/16 08:46:43;;;;;;;8.90;3.33;;;26.70;95.70;;;;;;4998457;28;20131;-86
2022/05/16 08:49:41;;;;;;;9.38;3.03;;;26.10;95.80;;;;;;5016051;28;20041;-86
2022/05/16 08:52:33;;;;;;;9.20;3.30;;;26.70;95.90;;;;;;5039660;28;20508;-88
2022/05/16 08:55:05;;;;;;;11.40;3.35;;;26.50;95.70;;;;;;5052599;28;20491;-90
2022/05/16 08:57:40;;;;;;;9.85;3.53;;;26.80;95.60;;;;;;5058276;28;20051;-88
2022/05/16 09:00:11;;;;;;;9.77;3.42;;;26.80;95.20;;;;;;5048639;28;20144;-86
2022/05/16 09:02:37;;;;;;;11.45;4.18;;;26.30;95.40;;;;;;5017565;28;20107;-89
2022/05/16 09:05:25;;;;;;;8.43;3.10;;;26.40;95.40;;;;;;5049190;28;20048;-87
2022/05/16 09:07:52;;;;;;;13.18;3.30;;;27.00;95.30;;;;;;5032909;28;20449;-88
2022/05/16 09:10:22;;;;;;;8.68;3.38;;;26.90;95.70;;;;;;5030195;28;20456;-87
2022/05/16 09:12:54;;;;;;;6.07;3.28;;;27.20;95.80;;;;;;5038181;28;20103;-89
2022/05/16 09:15:35;;;;;;;8.70;3.15;;;28.00;94.80;;;;;;5048866;28;20041;-84
2022/05/16 09:18:03;;;;;;;7.75;3.03;;;27.60;94.40;;;;;;5050047;28;20481;-88
2022/05/16 09:20:50;;;;;;;8.40;2.92;;;27.50;94.70;;;;;;5034483;28;20533;-86
2022/05/16 09:23:28;;;;;;;8.38;3.08;;;26.80;95.10;;;;;;5051036;28;20044;-87
2022/05/16 09:26:08;;;;;;;8.77;3.00;;;27.40;95.30;;;;;;5036158;28;20565;-88
2022/05/16 09:28:37;;;;;;;10.57;2.85;;;27.70;94.50;;;;;;5035806;28;20155;-85
2022/05/16 09:31:28;;;;;;;10.18;2.95;;;27.90;94.70;;;;;;5049990;28;20049;-86
2022/05/16 09:33:55;;;;;;;6.68;2.72;;;28.00;94.50;;;;;;5045150;28;20102;-85
2022/05/16 09:36:30;;;;;;;8.23;2.88;;;29.50;94.10;;;;;;5017119;28;20581;-85
2022/05/16 09:38:56;;;;;;;7.15;2.60;;;29.90;92.90;;;;;;5014825;28;20049;-85
2022/05/16 09:41:26;;;;;;;7.30;3.47;;;29.90;92.80;;;;;;5045299;28;20073;-86
2022/05/16 09:44:02;;;;;;;7.63;3.00;;;29.30;92.60;;;;;;5037748;28;20057;-85
2022/05/16 09:46:37;;;;;;;6.18;2.97;;;29.60;92.50;;;;;;5033264;28;20088;-86
2022/05/16 09:49:23;;;;;;;4.65;2.60;;;30.00;92.50;;;;;;5038268;28;20087;-85
2022/05/16 09:51:57;;;;;;;5.15;2.75;;;30.00;92.40;;;;;;5032346;28;20171;-84
2022/05/16 09:54:35;;;;;;;7.43;2.90;;;30.00;92.40;;;;;;5050801;28;20131;-90
2022/05/16 09:57:01;;;;;;;10.82;3.17;;;29.60;92.90;;;;;;5051017;28;20164;-89
2022/05/16 09:59:38;;;;;;;7.60;2.90;;;30.20;92.80;;;;;;5051820;28;20519;-89
2022/05/16 10:02:11;;;;;;;5.40;2.65;;;29.70;92.20;;;;;;5015116;28;20053;-94
2022/05/16 10:04:43;;;;;;;7.07;2.83;;;29.30;92.00;;;;;;5033584;28;20052;-93
2022/05/16 10:07:09;;;;;;;5.78;2.60;;;29.00;92.00;;;;;;5036434;28;20059;-89
2022/05/16 10:09:43;;;;;;;6.45;2.65;;;28.90;92.40;;;;;;5032603;28;20037;-96
2022/05/16 10:12:09;;;;;;;6.30;2.70;;;29.60;92.20;;;;;;4999767;28;20098;-93
2022/05/16 10:14:37;;;;;;;4.43;2.40;;;30.00;91.40;;;;;;5034520;28;20052;-94
2022/05/16 10:17:03;;;;;;;7.07;2.80;;;29.80;91.90;;;;;;5036197;28;20390;-94
2022/05/16 10:19:29;;;;;;;6.45;2.83;;;30.00;91.90;;;;;;5020428;28;20219;-95
2022/05/16 10:22:03;;;;;;;6.53;2.90;;;30.00;91.30;;;;;;5034262;28;20112;-94
2022/05/16 10:24:35;;;;;;;11.15;3.30;;;29.50;91.30;;;;;;5051580;28;20039;-88
2022/05/16 10:27:06;;;;;;;6.57;2.78;;;29.50;91.60;;;;;;5034522;28;20057;-88
2022/05/16 10:29:33;;;;;;;10.18;2.85;;;30.00;91.60;;;;;;5018099;28;20045;-89
2022/05/16 10:35:04;;;;;;;6.70;2.85;;;29.80;92.00;;;;;;5036554;28;20435;-90
2022/05/16 10:37:35;;;;;;;7.25;2.95;;;30.00;91.40;;;;;;5017566;28;20065;-89
2022/05/16 10:40:20;;;;;;;7.13;2.97;;;30.50;91.00;;;;;;5034337;28;20079;-90
2022/05/16 10:43:08;;;;;;;9.63;2.88;;;29.70;91.30;;;;;;5033866;28;20045;-89
2022/05/16 10:45:34;;;;;;;9.30;2.83;;;29.60;91.40;;;;;;5035396;28;20045;-89
2022/05/16 10:48:28;;;;;;;8.23;2.80;;;29.70;91.60;;;;;;5018178;28;20144;-92
2022/05/16 10:50:59;;;;;;;6.40;3.08;;;29.40;91.00;;;;;;5034443;28;20171;-88
2022/05/16 10:53:30;;;;;;;7.43;2.80;;;29.60;91.50;;;;;;5037420;28;20072;-88
2022/05/16 10:56:20;;;;;;;8.43;3.33;;;28.90;91.30;;;;;;5039101;28;20051;-88
2022/05/16 10:59:10;;;;;;;8.68;2.78;;;28.40;92.00;;;;;;5055785;28;20477;-90
2022/05/16 11:01:42;;;;;;;7.18;3.03;;;28.20;91.80;;;;;;5034297;28;20052;-87
2022/05/16 11:04:19;;;;;;;18.93;4.07;;;27.90;92.20;;;;;;5032036;28;20037;-89
2022/05/16 11:06:47;;;;;;;8.25;3.30;;;28.00;92.40;;;;;;5030602;28;20048;-87
2022/05/16 11:09:30;;;;;;;6.57;3.33;;;28.00;92.00;;;;;;5051423;28;20177;-87
2022/05/16 11:12:12;;;;;;;7.57;3.30;;;28.10;92.10;;;;;;5020942;28;20120;-86
2022/05/16 11:14:56;;;;;;;7.85;3.00;;;27.70;92.30;;;;;;5033298;28;20053;-87
2022/05/16 11:17:28;;;;;;;9.25;3.22;;;27.70;92.70;;;;;;5016507;28;20053;-87
2022/05/16 11:20:16;;;;;;;10.60;3.63;;;27.80;92.20;;;;;;5035943;28;20052;-87
2022/05/16 11:22:43;;;;;;;6.90;2.70;;;27.80;92.60;;;;;;5051732;28;20049;-87
2022/05/16 11:25:17;;;;;;;6.13;2.88;;;27.50;92.70;;;;;;5034393;28;20067;-86
2022/05/16 11:27:58;;;;;;;9.82;3.00;;;27.40;92.60;;;;;;5037122;28;20056;-87
2022/05/16 11:30:42;;;;;;;7.13;3.20;;;27.40;93.10;;;;;;5054461;28;20040;-86
2022/05/16 11:33:23;;;;;;;9.98;3.67;;;26.80;92.40;;;;;;5042183;28;20041;-87
2022/05/16 11:35:51;;;;;;;7.50;3.53;;;26.80;92.90;;;;;;5036174;28;20073;-85
2022/05/16 11:38:37;;;;;;;7.43;3.15;;;26.90;93.10;;;;;;5047911;28;20412;-86
2022/05/16 11:41:23;;;;;;;7.85;3.08;;;26.40;93.20;;;;;;5055714;28;20094;-86
2022/05/16 11:43:51;;;;;;;7.15;2.60;;;26.70;93.30;;;;;;5052498;28;20045;-86
2022/05/16 11:46:33;;;;;;;8.35;3.42;;;26.60;93.70;;;;;;5016657;28;20091;-89
2022/05/16 11:49:16;;;;;;;7.03;2.80;;;26.20;94.20;;;;;;5037778;28;20049;-90
2022/05/16 11:52:20;;;;;;;9.18;3.55;;;26.30;94.90;;;;;;5017763;28;20072;-88
2022/05/16 11:54:56;;;;;;;8.00;2.93;;;26.00;95.30;;;;;;5052750;28;20432;-88
2022/05/16 12:00:31;;;;;;;8.15;3.38;;;25.60;99.10;;;;;;5037731;28;20053;-88
2022/05/16 12:03:07;;;;;;;9.07;3.40;;;25.40;99.90;;;;;;5045826;28;20094;-88
2022/05/16 12:05:40;;;;;;;6.07;3.40;;;25.20;99.90;;;;;;5052635;28;20049;-86
2022/05/16 12:08:12;;;;;;;;;;;25.00;99.90;;;;;;5053250;28;20052;-89
2022/05/16 12:10:58;;;;;;;14.10;3.80;;;24.60;99.90;;;;;;5053336;28;19928;-88
2022/05/16 12:13:27;;;;;;;9.40;3.88;;;24.60;99.90;;;;;;5035027;28;20045;-87
2022/05/16 12:16:18;;;;;;;10.10;4.25;;;24.50;99.90;;;;;;5031183;28;20045;-89
2022/05/16 12:18:48;;;;;;;9.80;4.18;;;24.40;99.90;;;;;;5033281;28;20181;-88
2022/05/16 12:21:22;;;;;;;9.52;3.55;;;24.40;99.90;;;;;;5004300;28;20049;-88
2022/05/16 12:23:48;;;;;;;8.95;4.07;;;24.40;99.90;;;;;;5017664;28;20080;-89
2022/05/16 12:26:43;;;;;;;10.85;4.22;;;24.40;99.90;;;;;;5051973;28;20069;-88
2022/05/16 12:29:09;;;;;;;8.70;4.15;;;24.60;99.90;;;;;;4983364;28;20062;-89
2022/05/16 12:31:50;;;;;;;11.85;4.50;;;24.50;99.90;;;;;;5054923;28;20106;-88
2022/05/16 12:34:31;;;;;;;9.93;3.70;;;24.70;99.90;;;;;;5047488;28;20092;-89
2022/05/16 12:36:58;;;;;;;10.18;4.15;;;24.70;99.90;;;;;;5036242;28;20432;-88
2022/05/16 12:39:25;;;;;;;14.00;4.93;;;24.70;99.90;;;;;;5055841;28;20044;-87
2022/05/16 12:42:07;;;;;;;11.15;4.30;;;24.70;99.90;;;;;;5042803;28;20396;-88
2022/05/16 12:44:36;;;;;;;11.60;4.78;;;24.90;99.90;;;;;;5072351;28;20584;-89
2022/05/16 12:47:33;;;;;;;8.48;3.97;;;24.90;99.90;;;;;;5058733;28;20044;-87
2022/05/16 12:50:25;;;;;;;8.13;4.28;;;25.00;99.90;;;;;;5066209;28;20044;-88
2022/05/16 12:53:29;;;;;;;10.20;4.20;;;25.00;99.90;;;;;;5040062;28;20141;-88
2022/05/16 12:56:16;;;;;;;9.50;4.03;;;25.10;99.90;;;;;;5025974;28;20049;-86
2022/05/16 12:58:52;;;;;;;10.10;4.57;;;24.90;99.90;;;;;;5036802;28;20051;-88
2022/05/16 13:01:35;;;;;;;12.18;4.63;;;25.00;99.90;;;;;;5020652;28;20088;-88
2022/05/16 13:04:21;;;;;;;9.60;4.10;;;25.20;99.90;;;;;;5038982;28;20075;-87
2022/05/16 13:06:49;;;;;;;11.63;3.80;;;25.10;99.90;;;;;;5033882;28;20048;-85
2022/05/16 13:09:41;;;;;;;9.13;4.10;;;25.70;99.90;;;;;;5032819;28;20058;-85
2022/05/16 13:12:33;;;;;;;10.55;4.22;;;26.00;99.90;;;;;;5029701;28;20554;-86
2022/05/16 13:15:10;;;;;;;9.30;4.22;;;26.40;99.90;;;;;;5017015;28;20105;-87
2022/05/16 13:17:49;;;;;;;12.68;4.00;;;26.50;99.90;;;;;;5034446;28;20045;-85
2022/05/16 13:20:24;;;;;;;7.95;3.90;;;26.50;99.90;;;;;;5050898;28;20093;-86
2022/05/16 13:22:49;;;;;;;11.73;4.22;;;26.30;99.90;;;;;;5001623;28;20049;-86
2022/05/16 13:25:17;;;;;;;8.88;3.47;;;26.30;99.90;;;;;;5016084;28;20064;-87
2022/05/16 13:30:35;;;;;;;7.97;3.60;;;26.50;99.90;;;;;;5036500;28;20452;-86
2022/05/16 13:33:00;;;;;;;8.43;4.03;;;26.30;99.90;;;;;;5028979;28;20079;-87